createdAt,value
2023-03-24T00:00:31.810Z,100794.02
2023-03-24T00:03:03.120Z,100787.45
2023-03-24T00:05:31.980Z,100794.52
2023-03-24T00:08:02.372Z,100789.35
2023-03-24T00:10:31.878Z,100793.63
2023-03-24T00:12:59.944Z,100801.05
2023-03-24T00:15:28.320Z,100831.34
2023-03-24T00:17:59.261Z,100832.15
2023-03-24T00:20:27.618Z,100844.31
2023-03-24T00:22:59.972Z,100839.67
2023-03-24T00:25:35.274Z,100833.46
2023-03-24T00:28:04.527Z,100844.18
2023-03-24T00:30:33.156Z,100847.88
2023-03-24T00:33:03.217Z,100837.74
2023-03-24T00:35:31.289Z,100829.27
2023-03-24T00:37:59.693Z,100812.50
2023-03-24T00:40:28.936Z,100834.18
2023-03-24T00:42:57.010Z,100830.13
2023-03-24T00:45:25.117Z,100822.41
2023-03-24T00:47:55.408Z,100837.52
2023-03-24T00:50:28.009Z,100839.67
2023-03-24T00:52:56.388Z,100847.02
2023-03-24T00:55:24.556Z,100841.83
2023-03-24T00:57:52.681Z,100808.67
2023-03-24T01:00:25.208Z,100764.47
2023-03-24T01:02:55.329Z,100745.63
2023-03-24T01:05:25.045Z,100747.66
2023-03-24T01:07:57.901Z,100743.61
2023-03-24T01:10:27.686Z,100728.96
2023-03-24T01:12:59.692Z,100726.93
2023-03-24T01:15:31.328Z,100718.73
2023-03-24T01:17:59.385Z,100715.49
2023-03-24T01:20:27.505Z,100704.05
2023-03-24T01:22:55.624Z,100703.55
2023-03-24T01:25:24.534Z,100695.71
2023-03-24T01:27:53.144Z,100693.23
2023-03-24T01:30:27.594Z,100700.97
2023-03-24T01:32:55.634Z,100708.33
2023-03-24T01:35:24.298Z,100720.16
2023-03-24T01:37:52.362Z,100718.10
2023-03-24T01:40:23.146Z,100715.26
2023-03-24T01:42:52.555Z,100704.18
2023-03-24T01:45:42.311Z,100707.02
2023-03-24T01:48:23.776Z,100705.35
2023-03-24T01:51:02.024Z,100706.92
2023-03-24T01:53:30.201Z,100706.56
2023-03-24T01:55:58.451Z,100705.62
2023-03-24T01:58:27.363Z,100700.71
2023-03-24T02:00:55.639Z,100703.72
2023-03-24T02:03:27.005Z,100711.92
2023-03-24T02:05:55.361Z,100717.65
2023-03-24T02:08:32.483Z,100704.90
2023-03-24T02:11:00.900Z,100713.13
2023-03-24T02:13:29.044Z,100707.84
2023-03-24T02:16:01.721Z,100705.84
2023-03-24T02:18:56.577Z,100698.00
2023-03-24T02:21:46.401Z,100704.18
2023-03-24T02:24:36.196Z,100712.65
2023-03-24T02:27:13.074Z,100741.62
2023-03-24T02:30:20.721Z,100734.55
2023-03-24T02:32:55.199Z,100715.26
2023-03-24T02:35:29.530Z,100745.90
2023-03-24T02:38:16.366Z,100732.30
2023-03-24T02:40:56.085Z,100721.21
2023-03-24T02:43:26.647Z,100726.45
2023-03-24T02:46:24.331Z,100728.37
2023-03-24T02:49:23.203Z,100725.49
2023-03-24T02:51:55.310Z,100732.88
2023-03-24T02:54:36.309Z,100726.70
2023-03-24T02:57:11.822Z,100740.99
2023-03-24T02:59:45.818Z,100739.45
2023-03-24T03:02:22.468Z,100726.70
2023-03-24T03:04:56.815Z,100736.58
2023-03-24T03:07:26.877Z,100740.99
2023-03-24T03:10:05.436Z,100740.99
2023-03-24T03:12:35.447Z,100737.43
2023-03-24T03:15:06.725Z,100741.45
2023-03-24T03:17:41.183Z,100728.86
2023-03-24T03:20:14.877Z,100716.21
2023-03-24T03:22:55.035Z,100708.82
2023-03-24T03:25:25.055Z,100706.30
2023-03-24T03:27:54.754Z,100697.28
2023-03-24T03:30:31.615Z,100701.79
2023-03-24T03:33:04.860Z,100696.55
2023-03-24T03:35:51.435Z,100687.14
2023-03-24T03:38:38.649Z,100681.78
2023-03-24T03:41:07.111Z,100674.26
2023-03-24T03:43:35.514Z,100658.34
2023-03-24T03:46:03.994Z,100649.28
2023-03-24T03:48:32.124Z,100625.97
2023-03-24T03:51:13.185Z,100643.91
2023-03-24T03:53:45.352Z,100648.92
2023-03-24T03:56:14.042Z,100646.56
2023-03-24T03:58:43.880Z,100613.80
2023-03-24T04:01:13.053Z,100615.47
2023-03-24T04:03:57.596Z,100613.09
2023-03-24T04:06:34.636Z,100608.54
2023-03-24T04:09:26.021Z,100617.01
2023-03-24T04:12:09.455Z,100606.38
2023-03-24T04:15:12.461Z,100588.43
2023-03-24T04:18:02.324Z,100599.74
2023-03-24T04:20:39.838Z,100584.41
2023-03-24T04:23:15.857Z,100600.95
2023-03-24T04:26:11.885Z,100604.65
2023-03-24T04:28:59.450Z,100588.20
2023-03-24T04:31:36.346Z,100581.56
2023-03-24T04:34:13.622Z,100574.86
2023-03-24T04:36:45.802Z,100590.85
2023-03-24T04:39:21.319Z,100594.52
2023-03-24T04:41:49.823Z,100601.77
2023-03-24T04:44:18.933Z,100621.42
2023-03-24T04:46:46.855Z,100638.91
2023-03-24T04:49:14.800Z,100640.59
2023-03-24T04:51:43.465Z,100653.20
2023-03-24T04:54:12.752Z,100666.77
2023-03-24T04:56:53.445Z,100674.98
2023-03-24T04:59:21.548Z,100669.75
2023-03-24T05:01:53.107Z,100677.82
2023-03-24T05:04:22.863Z,100688.94
2023-03-24T05:06:54.006Z,100681.68
2023-03-24T05:09:24.023Z,100695.48
2023-03-24T05:11:52.452Z,100690.58
2023-03-24T05:14:20.476Z,100700.84
2023-03-24T05:16:48.580Z,100712.74
2023-03-24T05:19:17.419Z,100712.38
2023-03-24T05:21:45.665Z,100719.28
2023-03-24T05:24:13.937Z,100736.41
2023-03-24T05:26:41.874Z,100716.08
2023-03-24T05:29:09.895Z,100714.41
2023-03-24T05:31:38.047Z,100728.70
2023-03-24T05:34:06.063Z,100728.34
2023-03-24T05:36:34.065Z,100725.13
2023-03-24T05:39:02.168Z,100724.77
2023-03-24T05:41:30.292Z,100714.05
2023-03-24T05:43:58.231Z,100712.02
2023-03-24T05:46:26.674Z,100714.05
2023-03-24T05:48:54.787Z,100712.02
2023-03-24T05:51:22.900Z,100710.00
2023-03-24T05:53:50.981Z,100710.00
2023-03-24T05:56:19.013Z,100720.72
2023-03-24T05:58:47.140Z,100723.34
2023-03-24T06:01:15.255Z,100743.48
2023-03-24T06:03:43.382Z,100743.12
2023-03-24T06:06:15.908Z,100738.25
2023-03-24T06:08:46.273Z,100738.25
2023-03-24T06:11:14.335Z,100735.37
2023-03-24T06:13:42.292Z,100728.02
2023-03-24T06:16:11.194Z,100718.23
2023-03-24T06:18:41.912Z,100724.05
2023-03-24T06:21:09.985Z,100723.01
2023-03-24T06:23:38.012Z,100734.06
2023-03-24T06:26:09.971Z,100740.73
2023-03-24T06:28:41.088Z,100741.13
2023-03-24T06:31:20.182Z,100743.15
2023-03-24T06:33:49.535Z,100744.91
2023-03-24T06:36:17.637Z,100754.34
2023-03-24T06:38:45.846Z,100758.48
2023-03-24T06:41:14.085Z,100757.34
2023-03-24T06:43:42.223Z,100755.74
2023-03-24T06:46:11.472Z,100751.00
2023-03-24T06:48:40.483Z,100753.88
2023-03-24T06:51:08.660Z,100738.48
2023-03-24T06:53:36.692Z,100746.35
2023-03-24T06:56:04.943Z,100741.22
2023-03-24T06:58:34.004Z,100755.28
2023-03-24T07:01:02.971Z,100749.20
2023-03-24T07:03:31.121Z,100759.47
2023-03-24T07:06:00.585Z,100769.34
2023-03-24T07:08:38.302Z,100782.68
2023-03-24T07:11:08.404Z,100781.96
2023-03-24T07:13:36.558Z,100812.83
2023-03-24T07:16:04.811Z,100805.34
2023-03-24T07:18:32.913Z,100803.12
2023-03-24T07:21:01.079Z,100815.48
2023-03-24T07:23:29.356Z,100818.68
2023-03-24T07:25:57.693Z,100822.63
2023-03-24T07:28:26.148Z,100824.66
2023-03-24T07:30:55.378Z,100819.66
2023-03-24T07:33:25.745Z,100820.80
2023-03-24T07:35:58.526Z,100820.38
2023-03-24T07:38:27.352Z,100823.23
2023-03-24T07:40:55.357Z,100823.13
2023-03-24T07:43:23.473Z,100814.52
2023-03-24T07:45:51.536Z,100821.91
2023-03-24T07:48:19.745Z,100829.77
2023-03-24T07:50:47.862Z,100834.30
2023-03-24T07:53:19.951Z,100845.39
2023-03-24T07:55:48.795Z,100847.06
2023-03-24T07:58:17.101Z,100854.09
2023-03-24T08:00:46.177Z,100865.17
2023-03-24T08:03:15.797Z,100858.73
2023-03-24T08:05:45.137Z,100868.93
2023-03-24T08:08:13.382Z,100872.46
2023-03-24T08:10:41.429Z,100883.55
2023-03-24T08:13:09.473Z,100883.55
2023-03-24T08:15:37.456Z,100883.55
2023-03-24T08:18:05.777Z,100894.17
2023-03-24T08:20:33.987Z,100891.63
2023-03-24T08:23:02.397Z,100888.78
2023-03-24T08:25:30.463Z,100893.78
2023-03-24T08:27:58.479Z,100896.34
2023-03-24T08:30:27.529Z,100891.10
2023-03-24T08:33:00.616Z,100891.23
2023-03-24T08:35:35.976Z,100888.81
2023-03-24T08:38:06.924Z,100884.66
2023-03-24T08:40:36.166Z,100887.73
2023-03-24T08:43:05.688Z,100881.88
2023-03-24T08:45:33.904Z,100887.51
2023-03-24T08:48:04.014Z,100890.19
2023-03-24T08:50:34.307Z,100893.55
2023-03-24T08:53:03.054Z,100901.53
2023-03-24T08:55:31.115Z,100906.63
2023-03-24T08:57:59.085Z,100912.13
2023-03-24T09:00:27.151Z,100920.10
2023-03-24T09:02:55.533Z,100923.93
2023-03-24T09:05:36.598Z,100928.08
2023-03-24T09:08:12.840Z,100919.88
2023-03-24T09:10:42.180Z,100909.31
2023-03-24T09:13:10.380Z,100906.47
2023-03-24T09:15:38.807Z,100920.43
2023-03-24T09:18:07.126Z,100911.11
2023-03-24T09:20:35.169Z,100914.71
2023-03-24T09:23:03.230Z,100913.50
2023-03-24T09:25:31.430Z,100911.57
2023-03-24T09:27:59.471Z,100910.49
2023-03-24T09:30:30.362Z,100917.26
2023-03-24T09:33:00.352Z,100921.54
2023-03-24T09:35:28.636Z,100923.57
2023-03-24T09:37:57.112Z,100911.77
2023-03-24T09:40:37.326Z,100928.57
2023-03-24T09:43:20.785Z,100923.44
2023-03-24T09:45:52.836Z,100938.58
2023-03-24T09:48:53.235Z,100938.02
2023-03-24T09:51:30.908Z,100920.56
2023-03-24T09:54:23.620Z,100920.30
2023-03-24T09:56:52.009Z,100915.13
2023-03-24T09:59:22.098Z,100914.77
2023-03-24T10:01:50.395Z,100924.59
2023-03-24T10:04:22.953Z,100921.12
2023-03-24T10:06:54.694Z,100915.79
2023-03-24T10:09:30.996Z,100910.49
2023-03-24T10:12:08.008Z,100898.39
2023-03-24T10:15:02.068Z,100899.34
2023-03-24T10:18:14.231Z,100900.29
2023-03-24T10:21:08.967Z,100890.48
2023-03-24T10:23:42.913Z,100894.44
2023-03-24T10:26:15.675Z,100895.52
2023-03-24T10:29:05.990Z,100894.24
2023-03-24T10:31:35.049Z,100916.70
2023-03-24T10:34:03.077Z,100913.50
2023-03-24T10:36:32.322Z,100918.27
2023-03-24T10:39:12.636Z,100938.70
2023-03-24T10:41:46.504Z,100938.48
2023-03-24T10:44:15.356Z,100942.17
2023-03-24T10:46:48.366Z,100941.35
2023-03-24T10:49:18.672Z,100955.94
2023-03-24T10:51:51.526Z,100944.04
2023-03-24T10:54:27.116Z,100946.78
2023-03-24T10:57:04.989Z,100939.98
2023-03-24T10:59:42.112Z,100919.77
2023-03-24T11:02:32.482Z,100923.47
2023-03-24T11:05:03.830Z,100910.91
2023-03-24T11:07:38.821Z,100914.71
2023-03-24T11:10:13.102Z,100917.32
2023-03-24T11:12:42.360Z,100918.63
2023-03-24T11:15:22.124Z,100930.66
2023-03-24T11:17:57.839Z,100929.84
2023-03-24T11:20:33.081Z,100928.67
2023-03-24T11:23:05.365Z,100922.06
2023-03-24T11:25:38.230Z,100915.55
2023-03-24T11:28:19.751Z,100922.62
2023-03-24T11:30:52.204Z,100925.20
2023-03-24T11:33:35.624Z,100933.57
2023-03-24T11:36:28.491Z,100945.77
2023-03-24T11:39:14.065Z,100949.46
2023-03-24T11:42:05.735Z,100953.91
2023-03-24T11:44:43.378Z,100952.24
2023-03-24T11:47:25.425Z,100952.34
2023-03-24T11:50:02.773Z,100937.63
2023-03-24T11:52:37.792Z,100945.21
2023-03-24T11:55:07.980Z,100940.54
2023-03-24T11:57:57.597Z,100940.93
2023-03-24T12:00:30.047Z,100940.11
2023-03-24T12:03:02.144Z,100937.63
2023-03-24T12:05:35.099Z,100925.89
2023-03-24T12:08:12.530Z,100919.58
2023-03-24T12:10:50.138Z,100922.62
2023-03-24T12:13:32.203Z,100933.02
2023-03-24T12:16:13.250Z,100920.89
2023-03-24T12:18:44.395Z,100907.19
2023-03-24T12:21:50.010Z,100897.09
2023-03-24T12:24:23.941Z,100897.09
2023-03-24T12:26:53.317Z,100889.11
2023-03-24T12:29:49.809Z,100903.00
2023-03-24T12:32:33.053Z,100915.69
2023-03-24T12:35:16.100Z,100916.54
2023-03-24T12:37:47.707Z,100916.08
2023-03-24T12:40:43.311Z,100923.47
2023-03-24T12:43:30.110Z,100907.55
2023-03-24T12:45:58.827Z,100906.73
2023-03-24T12:48:50.132Z,100897.28
2023-03-24T12:51:31.326Z,100883.02
2023-03-24T12:54:20.589Z,100873.58
2023-03-24T12:57:13.742Z,100877.01
2023-03-24T12:59:59.298Z,100873.48
2023-03-24T13:03:05.699Z,100869.81
2023-03-24T13:05:35.799Z,100859.55
2023-03-24T13:08:11.412Z,100854.91
2023-03-24T13:10:41.903Z,100858.38
2023-03-24T13:13:12.996Z,100853.50
2023-03-24T13:16:00.517Z,100852.72
2023-03-24T13:18:40.908Z,100860.73
2023-03-24T13:21:20.599Z,100867.69
2023-03-24T13:23:56.584Z,100878.91
2023-03-24T13:27:04.235Z,100872.30
2023-03-24T13:29:49.477Z,100872.56
2023-03-24T13:32:26.802Z,100873.02
2023-03-24T13:35:21.659Z,100871.45
2023-03-24T13:37:52.708Z,100871.94
2023-03-24T13:40:25.134Z,100887.08
2023-03-24T13:43:01.026Z,100893.29
2023-03-24T13:45:49.564Z,100895.77
2023-03-24T13:48:19.837Z,100890.32
2023-03-24T13:51:01.582Z,100894.47
2023-03-24T13:53:35.838Z,100895.19
2023-03-24T13:56:04.847Z,100885.87
2023-03-24T13:58:50.725Z,100895.68
2023-03-24T14:01:39.321Z,100892.21
2023-03-24T14:04:26.631Z,100903.10
2023-03-24T14:06:58.423Z,100901.11
2023-03-24T14:09:31.193Z,100902.64
2023-03-24T14:12:06.327Z,100912.78
2023-03-24T14:14:35.972Z,100927.72
2023-03-24T14:17:09.639Z,100919.02
2023-03-24T14:19:42.167Z,100918.63
2023-03-24T14:22:28.551Z,100914.94
2023-03-24T14:25:19.551Z,100917.78
2023-03-24T14:27:48.727Z,100914.41
2023-03-24T14:30:32.067Z,100920.04
2023-03-24T14:33:01.213Z,100913.70
2023-03-24T14:35:43.439Z,100912.74
2023-03-24T14:38:17.655Z,100911.18
2023-03-24T14:40:47.720Z,100902.94
2023-03-24T14:43:26.560Z,100897.22
2023-03-24T14:45:55.545Z,100897.31
2023-03-24T14:48:31.246Z,100907.48
2023-03-24T14:51:07.546Z,100906.77
2023-03-24T14:53:36.383Z,100913.56
2023-03-24T14:56:05.016Z,100916.21
2023-03-24T14:58:40.382Z,100917.65
2023-03-24T15:01:08.665Z,100910.59
2023-03-24T15:04:17.308Z,100916.31
2023-03-24T15:06:48.235Z,100907.16
2023-03-24T15:09:19.721Z,100917.52
2023-03-24T15:11:48.516Z,100921.84
2023-03-24T15:14:22.829Z,100920.27
2023-03-24T15:16:56.138Z,100931.71
2023-03-24T15:19:28.293Z,100929.23
2023-03-24T15:22:08.389Z,100919.80
2023-03-24T15:24:37.912Z,100915.72
2023-03-24T15:27:09.141Z,100919.32
2023-03-24T15:29:41.593Z,100926.71
2023-03-24T15:32:22.144Z,100932.66
2023-03-24T15:34:52.069Z,100917.75
2023-03-24T15:37:25.329Z,100926.31
2023-03-24T15:40:01.683Z,100937.76
2023-03-24T15:42:34.149Z,100927.13
2023-03-24T15:45:28.469Z,100923.34
2023-03-24T15:47:57.290Z,100927.36
2023-03-24T15:50:39.220Z,100932.63
2023-03-24T15:53:08.618Z,100930.37
2023-03-24T15:55:37.986Z,100926.51
2023-03-24T15:58:25.753Z,100925.17
2023-03-24T16:00:54.555Z,100925.89
2023-03-24T16:03:27.729Z,100923.41
2023-03-24T16:05:56.577Z,100931.02
2023-03-24T16:08:33.232Z,100930.17
2023-03-24T16:11:02.813Z,100937.73
2023-03-24T16:13:30.856Z,100934.88
2023-03-24T16:16:23.084Z,100936.29
2023-03-24T16:18:53.047Z,100926.97
2023-03-24T16:21:29.276Z,100925.86
2023-03-24T16:23:58.562Z,100927.10
2023-03-24T16:26:35.706Z,100911.60
2023-03-24T16:29:15.685Z,100900.02
2023-03-24T16:31:43.873Z,100908.79
2023-03-24T16:34:12.313Z,100914.77
2023-03-24T16:36:40.614Z,100903.20
2023-03-24T16:39:14.662Z,100903.40
2023-03-24T16:41:42.802Z,100911.02
2023-03-24T16:44:10.818Z,100901.99
2023-03-24T16:46:39.145Z,100899.47
2023-03-24T16:49:08.318Z,100901.83
2023-03-24T16:51:36.447Z,100900.16
2023-03-24T16:54:06.047Z,100907.38
2023-03-24T16:56:34.162Z,100907.91
2023-03-24T16:59:02.226Z,100902.05
2023-03-24T17:01:41.149Z,100907.25
2023-03-24T17:04:16.020Z,100904.08
2023-03-24T17:06:45.661Z,100897.87
2023-03-24T17:09:14.173Z,100905.59
2023-03-24T17:11:46.277Z,100920.73
2023-03-24T17:14:14.316Z,100909.15
2023-03-24T17:16:46.456Z,100928.27
2023-03-24T17:19:16.612Z,100928.96
2023-03-24T17:21:56.816Z,100919.22
2023-03-24T17:24:25.582Z,100919.55
2023-03-24T17:26:54.032Z,100915.85
2023-03-24T17:29:22.707Z,100919.91
2023-03-24T17:31:54.461Z,100929.29
2023-03-24T17:34:22.653Z,100929.29
2023-03-24T17:36:52.021Z,100927.95
2023-03-24T17:39:20.765Z,100929.16
2023-03-24T17:41:49.010Z,100927.49
2023-03-24T17:44:18.289Z,100924.98
2023-03-24T17:46:46.452Z,100934.36
2023-03-24T17:49:14.491Z,100942.92
2023-03-24T17:51:42.677Z,100949.30
2023-03-24T17:54:11.936Z,100960.25
2023-03-24T17:56:40.337Z,100956.20
2023-03-24T17:59:08.380Z,100955.38
2023-03-24T18:01:40.409Z,100950.84
2023-03-24T18:04:09.041Z,100960.94
2023-03-24T18:06:37.323Z,100995.99
2023-03-24T18:09:05.740Z,100994.98
2023-03-24T18:11:33.861Z,101021.00
2023-03-24T18:14:01.934Z,101016.13
2023-03-24T18:16:32.229Z,101014.82
2023-03-24T18:19:01.991Z,101020.22
2023-03-24T18:21:30.113Z,101004.46
2023-03-24T18:23:58.665Z,101012.50
2023-03-24T18:26:27.853Z,100993.60
2023-03-24T18:28:55.922Z,101005.18
2023-03-24T18:31:25.508Z,100989.78
2023-03-24T18:33:53.871Z,100966.99
2023-03-24T18:36:22.878Z,101008.38
2023-03-24T18:38:50.853Z,101004.69
2023-03-24T18:41:19.668Z,101012.57
2023-03-24T18:43:49.110Z,101004.52
2023-03-24T18:46:17.427Z,100973.85
2023-03-24T18:48:45.609Z,100954.37
2023-03-24T18:51:13.619Z,100915.16
2023-03-24T18:53:41.692Z,100928.24
2023-03-24T18:56:10.079Z,100960.91
2023-03-24T18:58:39.673Z,100986.25
2023-03-24T19:01:10.348Z,101005.18
2023-03-24T19:03:40.096Z,101006.35
2023-03-24T19:06:08.768Z,101011.75
2023-03-24T19:08:39.025Z,101015.05
2023-03-24T19:11:06.995Z,101011.88
2023-03-24T19:13:35.143Z,101023.45
2023-03-24T19:16:03.188Z,101031.17
2023-03-24T19:18:31.339Z,101029.15
2023-03-24T19:20:59.820Z,101038.23
2023-03-24T19:23:27.971Z,101034.51
2023-03-24T19:25:56.486Z,101041.08
2023-03-24T19:28:30.503Z,101039.38
2023-03-24T19:30:59.360Z,101034.02
2023-03-24T19:33:30.814Z,101025.94
2023-03-24T19:35:59.865Z,101026.30
2023-03-24T19:38:27.965Z,101034.02
2023-03-24T19:40:56.071Z,101024.14
2023-03-24T19:43:24.535Z,101033.85
2023-03-24T19:45:57.152Z,101038.70
2023-03-24T19:48:25.354Z,101030.52
2023-03-24T19:50:54.573Z,101028.33
2023-03-24T19:53:22.990Z,101034.87
2023-03-24T19:55:51.334Z,101029.02
2023-03-24T19:58:19.399Z,101020.77
2023-03-24T20:00:47.520Z,101029.99
2023-03-24T20:03:15.560Z,101018.59
2023-03-24T20:05:43.607Z,101020.16
2023-03-24T20:08:11.608Z,101009.40
2023-03-24T20:10:41.371Z,101010.57
2023-03-24T20:13:09.754Z,101025.16
2023-03-24T20:15:37.886Z,101030.03
2023-03-24T20:18:06.091Z,101020.80
2023-03-24T20:20:34.257Z,101019.47
2023-03-24T20:23:02.334Z,101032.02
2023-03-24T20:25:30.310Z,101019.63
2023-03-24T20:27:58.411Z,101023.48
2023-03-24T20:30:29.512Z,101029.34
2023-03-24T20:32:58.273Z,101013.94
2023-03-24T20:35:26.988Z,101014.59
2023-03-24T20:37:54.997Z,101025.84
2023-03-24T20:40:23.207Z,101035.55
2023-03-24T20:42:51.967Z,101041.24
2023-03-24T20:45:20.041Z,101037.05
2023-03-24T20:47:48.501Z,101032.55
2023-03-24T20:50:16.638Z,101039.73
2023-03-24T20:52:44.620Z,101024.99
2023-03-24T20:55:12.936Z,101029.66
2023-03-24T20:57:40.934Z,101030.52
2023-03-24T21:00:14.940Z,101023.33
2023-03-24T21:02:43.829Z,101028.49
2023-03-24T21:05:12.032Z,101035.69
2023-03-24T21:07:43.917Z,101023.45
2023-03-24T21:10:12.395Z,101026.01
2023-03-24T21:12:53.963Z,101031.70
2023-03-24T21:15:23.187Z,101032.52
2023-03-24T21:17:51.533Z,101043.76
2023-03-24T21:20:20.196Z,101044.91
2023-03-24T21:22:57.290Z,101058.31
2023-03-24T21:25:27.516Z,101056.94
2023-03-24T21:27:55.928Z,101070.87
2023-03-24T21:30:24.953Z,101076.39
2023-03-24T21:32:54.062Z,101065.02
2023-03-24T21:35:22.344Z,101073.22
2023-03-24T21:37:50.362Z,101070.54
2023-03-24T21:40:20.442Z,101072.53
2023-03-24T21:42:50.970Z,101081.43
2023-03-24T21:45:20.026Z,101072.53
2023-03-24T21:47:48.854Z,101088.49
2023-03-24T21:50:20.421Z,101087.61
2023-03-24T21:52:48.907Z,101087.97
2023-03-24T21:55:17.357Z,101080.77
2023-03-24T21:57:46.254Z,101081.75
2023-03-24T22:00:16.473Z,101082.80
2023-03-24T22:02:48.736Z,101080.77
2023-03-24T22:05:18.607Z,101081.91
2023-03-24T22:07:48.353Z,101083.95
2023-03-24T22:10:17.582Z,101085.94
2023-03-24T22:12:45.651Z,101083.45
2023-03-24T22:15:14.023Z,101079.56
2023-03-24T22:17:42.305Z,101079.56
2023-03-24T22:20:10.767Z,101072.53
2023-03-24T22:22:38.996Z,101069.66
2023-03-24T22:25:08.537Z,101071.68
2023-03-24T22:27:36.826Z,101069.66
2023-03-24T22:30:08.003Z,101068.84
2023-03-24T22:32:37.974Z,101072.04
2023-03-24T22:35:06.917Z,101076.88
2023-03-24T22:37:35.049Z,101081.23
2023-03-24T22:40:03.015Z,101081.55
2023-03-24T22:42:31.005Z,101084.40
2023-03-24T22:44:59.165Z,101090.09
2023-03-24T22:47:28.714Z,101100.81
2023-03-24T22:49:56.715Z,101102.52
2023-03-24T22:52:25.553Z,101107.55
2023-03-24T22:54:54.511Z,101103.01
2023-03-24T22:57:22.552Z,101114.91
2023-03-24T22:59:50.801Z,101121.97
2023-03-24T23:02:25.596Z,101132.34
2023-03-24T23:04:55.111Z,101134.03
2023-03-24T23:07:23.805Z,101137.08
2023-03-24T23:09:51.920Z,101140.41
2023-03-24T23:12:20.057Z,101146.30
2023-03-24T23:14:48.042Z,101143.09
2023-03-24T23:17:17.120Z,101147.60
2023-03-24T23:19:45.384Z,101133.05
2023-03-24T23:22:13.478Z,101133.05
2023-03-24T23:24:41.488Z,101131.58
2023-03-24T23:27:09.496Z,101106.41
2023-03-24T23:29:40.618Z,101103.92
2023-03-24T23:32:09.467Z,101117.33
2023-03-24T23:34:37.661Z,101107.42
2023-03-24T23:37:06.161Z,101111.64
2023-03-24T23:39:38.085Z,101116.80
2023-03-24T23:42:06.573Z,101108.92
2023-03-24T23:44:34.804Z,101113.77
2023-03-24T23:47:02.849Z,101134.03
2023-03-24T23:49:30.908Z,101131.65
2023-03-24T23:51:58.904Z,101123.60
2023-03-24T23:54:27.113Z,101148.06
2023-03-24T23:56:55.324Z,101152.73
2023-03-24T23:59:23.308Z,101163.27
